sensor_id;sensor_type;location;lat;lon;timestamp;P1;durP1;ratioP1;P2;durP2;ratioP2
61200;SDS011;47065;52.898;6.992;2022-08-16T00:00:47;24.10;;;21.65;;
61200;SDS011;47065;52.898;6.992;2022-08-16T00:03:15;23.70;;;19.23;;
61200;SDS011;47065;52.898;6.992;2022-08-16T00:05:41;24.13;;;21.20;;
61200;SDS011;47065;52.898;6.992;2022-08-16T00:08:08;23.70;;;19.65;;
61200;SDS011;47065;52.898;6.992;2022-08-16T00:10:35;22.77;;;20.17;;
61200;SDS011;47065;52.898;6.992;2022-08-16T00:13:03;23.73;;;20.50;;
61200;SDS011;47065;52.898;6.992;2022-08-16T00:15:33;24.58;;;20.02;;
61200;SDS011;47065;52.898;6.992;2022-08-16T00:18:03;24.52;;;22.10;;
61200;SDS011;47065;52.898;6.992;2022-08-16T00:20:30;24.17;;;21.33;;
61200;SDS011;47065;52.898;6.992;2022-08-16T00:22:57;25.33;;;22.73;;
61200;SDS011;47065;52.898;6.992;2022-08-16T00:25:23;24.02;;;21.50;;
61200;SDS011;47065;52.898;6.992;2022-08-16T00:27:50;24.83;;;22.35;;
61200;SDS011;47065;52.898;6.992;2022-08-16T00:30:17;22.27;;;19.95;;
61200;SDS011;47065;52.898;6.992;2022-08-16T00:32:45;23.88;;;21.60;;
61200;SDS011;47065;52.898;6.992;2022-08-16T00:35:15;23.08;;;20.45;;
61200;SDS011;47065;52.898;6.992;2022-08-16T00:37:44;25.02;;;21.42;;
61200;SDS011;47065;52.898;6.992;2022-08-16T00:40:12;23.20;;;20.55;;
61200;SDS011;47065;52.898;6.992;2022-08-16T00:42:39;23.40;;;20.77;;
61200;SDS011;47065;52.898;6.992;2022-08-16T00:45:27;25.55;;;20.83;;
61200;SDS011;47065;52.898;6.992;2022-08-16T00:47:56;24.08;;;21.75;;
61200;SDS011;47065;52.898;6.992;2022-08-16T00:50:23;21.80;;;19.65;;
61200;SDS011;47065;52.898;6.992;2022-08-16T00:52:51;24.50;;;22.20;;
61200;SDS011;47065;52.898;6.992;2022-08-16T00:55:20;29.17;;;23.85;;
61200;SDS011;47065;52.898;6.992;2022-08-16T00:57:48;28.23;;;23.83;;
61200;SDS011;47065;52.898;6.992;2022-08-16T01:00:16;27.92;;;25.05;;
61200;SDS011;47065;52.898;6.992;2022-08-16T01:02:42;26.48;;;23.67;;
61200;SDS011;47065;52.898;6.992;2022-08-16T01:05:08;25.70;;;22.83;;
61200;SDS011;47065;52.898;6.992;2022-08-16T01:07:34;28.20;;;24.95;;
61200;SDS011;47065;52.898;6.992;2022-08-16T01:10:01;26.70;;;23.90;;
61200;SDS011;47065;52.898;6.992;2022-08-16T01:12:26;28.52;;;25.52;;
61200;SDS011;47065;52.898;6.992;2022-08-16T01:14:53;26.92;;;23.88;;
61200;SDS011;47065;52.898;6.992;2022-08-16T01:17:22;28.45;;;23.20;;
61200;SDS011;47065;52.898;6.992;2022-08-16T01:19:50;26.73;;;23.92;;
61200;SDS011;47065;52.898;6.992;2022-08-16T01:25:11;27.90;;;25.02;;
61200;SDS011;47065;52.898;6.992;2022-08-16T01:27:42;28.40;;;23.48;;
61200;SDS011;47065;52.898;6.992;2022-08-16T01:30:14;27.40;;;24.08;;
61200;SDS011;47065;52.898;6.992;2022-08-16T01:32:42;28.48;;;25.58;;
61200;SDS011;47065;52.898;6.992;2022-08-16T01:35:13;29.33;;;26.25;;
61200;SDS011;47065;52.898;6.992;2022-08-16T01:39:07;28.73;;;25.75;;
61200;SDS011;47065;52.898;6.992;2022-08-16T01:40:59;28.92;;;25.95;;
61200;SDS011;47065;52.898;6.992;2022-08-16T01:43:27;30.17;;;26.83;;
61200;SDS011;47065;52.898;6.992;2022-08-16T01:45:54;29.77;;;26.60;;
61200;SDS011;47065;52.898;6.992;2022-08-16T01:48:26;30.60;;;27.52;;
61200;SDS011;47065;52.898;6.992;2022-08-16T01:50:54;32.63;;;29.40;;
61200;SDS011;47065;52.898;6.992;2022-08-16T01:53:19;32.33;;;29.02;;
61200;SDS011;47065;52.898;6.992;2022-08-16T01:55:45;32.60;;;28.23;;
61200;SDS011;47065;52.898;6.992;2022-08-16T01:58:14;33.60;;;29.95;;
61200;SDS011;47065;52.898;6.992;2022-08-16T02:00:42;32.72;;;29.23;;
61200;SDS011;47065;52.898;6.992;2022-08-16T02:03:08;34.30;;;30.60;;
61200;SDS011;47065;52.898;6.992;2022-08-16T02:05:34;32.05;;;28.40;;
61200;SDS011;47065;52.898;6.992;2022-08-16T02:08:00;31.77;;;28.40;;
61200;SDS011;47065;52.898;6.992;2022-08-16T02:10:28;33.38;;;29.95;;
61200;SDS011;47065;52.898;6.992;2022-08-16T02:12:55;34.95;;;31.23;;
61200;SDS011;47065;52.898;6.992;2022-08-16T02:15:22;35.58;;;31.98;;
61200;SDS011;47065;52.898;6.992;2022-08-16T02:17:50;35.70;;;31.85;;
61200;SDS011;47065;52.898;6.992;2022-08-16T02:20:16;37.08;;;32.13;;
61200;SDS011;47065;52.898;6.992;2022-08-16T02:22:43;35.47;;;31.50;;
61200;SDS011;47065;52.898;6.992;2022-08-16T02:25:11;38.40;;;32.88;;
61200;SDS011;47065;52.898;6.992;2022-08-16T02:27:39;35.13;;;31.35;;
61200;SDS011;47065;52.898;6.992;2022-08-16T02:30:08;37.53;;;32.80;;
61200;SDS011;47065;52.898;6.992;2022-08-16T02:32:40;32.50;;;29.25;;
61200;SDS011;47065;52.898;6.992;2022-08-16T02:35:06;35.50;;;31.88;;
61200;SDS011;47065;52.898;6.992;2022-08-16T02:37:32;34.58;;;30.90;;
61200;SDS011;47065;52.898;6.992;2022-08-16T02:39:58;33.92;;;30.05;;
61200;SDS011;47065;52.898;6.992;2022-08-16T02:42:23;33.88;;;29.52;;
61200;SDS011;47065;52.898;6.992;2022-08-16T02:44:49;33.92;;;30.33;;
61200;SDS011;47065;52.898;6.992;2022-08-16T02:47:15;34.08;;;30.42;;
61200;SDS011;47065;52.898;6.992;2022-08-16T02:49:40;34.35;;;30.65;;
61200;SDS011;47065;52.898;6.992;2022-08-16T02:52:07;33.53;;;30.05;;
61200;SDS011;47065;52.898;6.992;2022-08-16T02:54:34;32.95;;;29.45;;
61200;SDS011;47065;52.898;6.992;2022-08-16T02:57:01;35.97;;;31.55;;
61200;SDS011;47065;52.898;6.992;2022-08-16T02:59:28;36.30;;;32.30;;
61200;SDS011;47065;52.898;6.992;2022-08-16T03:01:54;35.95;;;31.35;;
61200;SDS011;47065;52.898;6.992;2022-08-16T03:04:20;34.20;;;30.75;;
61200;SDS011;47065;52.898;6.992;2022-08-16T03:06:47;36.78;;;32.72;;
61200;SDS011;47065;52.898;6.992;2022-08-16T03:09:12;36.92;;;32.08;;
61200;SDS011;47065;52.898;6.992;2022-08-16T03:11:38;35.00;;;31.20;;
61200;SDS011;47065;52.898;6.992;2022-08-16T03:14:04;33.42;;;30.08;;
61200;SDS011;47065;52.898;6.992;2022-08-16T03:16:30;33.58;;;29.80;;
61200;SDS011;47065;52.898;6.992;2022-08-16T03:18:56;34.72;;;31.05;;
61200;SDS011;47065;52.898;6.992;2022-08-16T03:21:21;33.90;;;30.25;;
61200;SDS011;47065;52.898;6.992;2022-08-16T03:23:47;34.05;;;30.48;;
61200;SDS011;47065;52.898;6.992;2022-08-16T03:26:14;32.58;;;29.27;;
61200;SDS011;47065;52.898;6.992;2022-08-16T03:28:40;34.30;;;30.67;;
61200;SDS011;47065;52.898;6.992;2022-08-16T03:31:06;33.75;;;30.10;;
61200;SDS011;47065;52.898;6.992;2022-08-16T03:33:33;36.75;;;32.20;;
61200;SDS011;47065;52.898;6.992;2022-08-16T03:35:59;33.47;;;29.98;;
61200;SDS011;47065;52.898;6.992;2022-08-16T03:38:26;35.63;;;31.88;;
61200;SDS011;47065;52.898;6.992;2022-08-16T03:40:53;35.75;;;31.92;;
61200;SDS011;47065;52.898;6.992;2022-08-16T03:43:20;35.03;;;31.38;;
61200;SDS011;47065;52.898;6.992;2022-08-16T03:45:49;34.08;;;30.55;;
61200;SDS011;47065;52.898;6.992;2022-08-16T03:48:16;33.88;;;30.27;;
61200;SDS011;47065;52.898;6.992;2022-08-16T03:50:42;37.65;;;31.60;;
61200;SDS011;47065;52.898;6.992;2022-08-16T03:53:08;34.92;;;31.25;;
61200;SDS011;47065;52.898;6.992;2022-08-16T03:55:34;36.30;;;32.47;;
61200;SDS011;47065;52.898;6.992;2022-08-16T03:57:59;37.05;;;32.35;;
61200;SDS011;47065;52.898;6.992;2022-08-16T04:00:27;36.15;;;31.65;;
61200;SDS011;47065;52.898;6.992;2022-08-16T04:02:55;39.00;;;34.83;;
61200;SDS011;47065;52.898;6.992;2022-08-16T04:05:23;38.60;;;34.47;;
61200;SDS011;47065;52.898;6.992;2022-08-16T04:07:49;43.58;;;36.25;;
61200;SDS011;47065;52.898;6.992;2022-08-16T04:10:15;38.40;;;33.88;;
61200;SDS011;47065;52.898;6.992;2022-08-16T04:12:42;37.95;;;33.70;;
61200;SDS011;47065;52.898;6.992;2022-08-16T04:15:10;37.22;;;33.33;;
61200;SDS011;47065;52.898;6.992;2022-08-16T04:17:37;39.88;;;35.70;;
61200;SDS011;47065;52.898;6.992;2022-08-16T04:20:03;40.92;;;34.75;;
61200;SDS011;47065;52.898;6.992;2022-08-16T04:22:32;39.10;;;33.65;;
61200;SDS011;47065;52.898;6.992;2022-08-16T04:24:59;40.03;;;35.80;;
61200;SDS011;47065;52.898;6.992;2022-08-16T04:27:24;39.35;;;35.03;;
61200;SDS011;47065;52.898;6.992;2022-08-16T04:29:50;42.08;;;35.65;;
61200;SDS011;47065;52.898;6.992;2022-08-16T04:32:16;40.90;;;35.22;;
61200;SDS011;47065;52.898;6.992;2022-08-16T04:34:41;41.83;;;36.28;;
61200;SDS011;47065;52.898;6.992;2022-08-16T04:37:07;45.97;;;36.33;;
61200;SDS011;47065;52.898;6.992;2022-08-16T04:39:34;40.42;;;35.88;;
61200;SDS011;47065;52.898;6.992;2022-08-16T04:42:01;42.85;;;37.35;;
61200;SDS011;47065;52.898;6.992;2022-08-16T04:44:26;40.88;;;35.28;;
61200;SDS011;47065;52.898;6.992;2022-08-16T04:46:53;39.20;;;34.85;;
61200;SDS011;47065;52.898;6.992;2022-08-16T04:49:18;39.40;;;32.53;;
61200;SDS011;47065;52.898;6.992;2022-08-16T04:51:46;38.17;;;33.97;;
61200;SDS011;47065;52.898;6.992;2022-08-16T04:54:12;39.67;;;35.30;;
61200;SDS011;47065;52.898;6.992;2022-08-16T04:56:38;39.47;;;33.30;;
61200;SDS011;47065;52.898;6.992;2022-08-16T04:59:05;41.50;;;33.95;;
61200;SDS011;47065;52.898;6.992;2022-08-16T05:01:32;38.15;;;32.33;;
61200;SDS011;47065;52.898;6.992;2022-08-16T05:03:58;35.47;;;31.70;;
61200;SDS011;47065;52.898;6.992;2022-08-16T05:06:24;36.25;;;31.95;;
61200;SDS011;47065;52.898;6.992;2022-08-16T05:08:50;36.15;;;31.30;;
61200;SDS011;47065;52.898;6.992;2022-08-16T05:11:15;38.20;;;30.95;;
61200;SDS011;47065;52.898;6.992;2022-08-16T05:13:43;34.13;;;28.70;;
61200;SDS011;47065;52.898;6.992;2022-08-16T05:16:13;37.17;;;31.13;;
61200;SDS011;47065;52.898;6.992;2022-08-16T05:18:42;34.85;;;31.20;;
61200;SDS011;47065;52.898;6.992;2022-08-16T05:21:08;35.17;;;29.45;;
61200;SDS011;47065;52.898;6.992;2022-08-16T05:23:34;33.45;;;29.65;;
61200;SDS011;47065;52.898;6.992;2022-08-16T05:25:59;34.75;;;29.33;;
61200;SDS011;47065;52.898;6.992;2022-08-16T05:28:25;35.40;;;28.40;;
61200;SDS011;47065;52.898;6.992;2022-08-16T05:30:51;31.35;;;26.92;;
61200;SDS011;47065;52.898;6.992;2022-08-16T05:33:17;31.50;;;25.08;;
61200;SDS011;47065;52.898;6.992;2022-08-16T05:35:45;34.78;;;27.52;;
61200;SDS011;47065;52.898;6.992;2022-08-16T05:38:11;31.33;;;27.95;;
61200;SDS011;47065;52.898;6.992;2022-08-16T05:40:37;31.10;;;27.52;;
61200;SDS011;47065;52.898;6.992;2022-08-16T05:43:03;33.90;;;28.55;;
61200;SDS011;47065;52.898;6.992;2022-08-16T05:45:29;29.73;;;26.63;;
61200;SDS011;47065;52.898;6.992;2022-08-16T05:47:55;34.40;;;29.40;;
61200;SDS011;47065;52.898;6.992;2022-08-16T05:50:20;32.15;;;28.38;;
61200;SDS011;47065;52.898;6.992;2022-08-16T05:52:46;33.60;;;27.65;;
61200;SDS011;47065;52.898;6.992;2022-08-16T05:55:11;30.70;;;26.77;;
61200;SDS011;47065;52.898;6.992;2022-08-16T05:57:37;29.35;;;26.35;;
61200;SDS011;47065;52.898;6.992;2022-08-16T06:00:04;34.58;;;26.40;;
61200;SDS011;47065;52.898;6.992;2022-08-16T06:02:33;33.53;;;28.73;;
61200;SDS011;47065;52.898;6.992;2022-08-16T06:04:59;30.35;;;27.17;;
61200;SDS011;47065;52.898;6.992;2022-08-16T06:07:25;29.92;;;26.25;;
61200;SDS011;47065;52.898;6.992;2022-08-16T06:09:50;31.70;;;25.95;;
61200;SDS011;47065;52.898;6.992;2022-08-16T06:12:16;28.67;;;25.65;;
61200;SDS011;47065;52.898;6.992;2022-08-16T06:14:42;28.25;;;25.27;;
61200;SDS011;47065;52.898;6.992;2022-08-16T06:17:08;28.77;;;25.23;;
61200;SDS011;47065;52.898;6.992;2022-08-16T06:19:33;27.00;;;24.10;;
61200;SDS011;47065;52.898;6.992;2022-08-16T06:21:59;28.40;;;25.30;;
61200;SDS011;47065;52.898;6.992;2022-08-16T06:24:25;29.77;;;25.02;;
61200;SDS011;47065;52.898;6.992;2022-08-16T06:26:53;28.05;;;25.05;;
61200;SDS011;47065;52.898;6.992;2022-08-16T06:29:19;28.67;;;24.85;;
61200;SDS011;47065;52.898;6.992;2022-08-16T06:31:44;25.92;;;22.70;;
61200;SDS011;47065;52.898;6.992;2022-08-16T06:34:10;25.27;;;22.60;;
61200;SDS011;47065;52.898;6.992;2022-08-16T06:36:36;24.65;;;22.05;;
61200;SDS011;47065;52.898;6.992;2022-08-16T06:39:01;22.95;;;20.52;;
61200;SDS011;47065;52.898;6.992;2022-08-16T06:41:27;24.02;;;21.35;;
61200;SDS011;47065;52.898;6.992;2022-08-16T06:43:53;22.85;;;20.35;;
61200;SDS011;47065;52.898;6.992;2022-08-16T06:46:24;23.30;;;19.27;;
61200;SDS011;47065;52.898;6.992;2022-08-16T06:48:52;26.83;;;21.27;;
61200;SDS011;47065;52.898;6.992;2022-08-16T06:51:18;20.25;;;18.20;;
61200;SDS011;47065;52.898;6.992;2022-08-16T06:53:49;23.15;;;18.63;;
61200;SDS011;47065;52.898;6.992;2022-08-16T06:56:14;22.77;;;18.15;;
61200;SDS011;47065;52.898;6.992;2022-08-16T06:58:42;19.25;;;16.38;;
61200;SDS011;47065;52.898;6.992;2022-08-16T07:01:10;21.52;;;15.73;;
61200;SDS011;47065;52.898;6.992;2022-08-16T07:03:36;17.30;;;14.65;;
61200;SDS011;47065;52.898;6.992;2022-08-16T07:06:07;16.67;;;13.38;;
61200;SDS011;47065;52.898;6.992;2022-08-16T07:08:32;15.15;;;12.77;;
61200;SDS011;47065;52.898;6.992;2022-08-16T07:10:58;14.40;;;12.82;;
61200;SDS011;47065;52.898;6.992;2022-08-16T07:13:24;15.73;;;14.10;;
61200;SDS011;47065;52.898;6.992;2022-08-16T07:15:50;14.07;;;12.50;;
61200;SDS011;47065;52.898;6.992;2022-08-16T07:18:19;15.73;;;13.43;;
61200;SDS011;47065;52.898;6.992;2022-08-16T07:20:46;16.48;;;13.77;;
61200;SDS011;47065;52.898;6.992;2022-08-16T07:23:13;15.13;;;13.23;;
61200;SDS011;47065;52.898;6.992;2022-08-16T07:25:39;13.23;;;11.85;;
61200;SDS011;47065;52.898;6.992;2022-08-16T07:28:09;17.67;;;13.30;;
61200;SDS011;47065;52.898;6.992;2022-08-16T07:30:37;14.00;;;12.50;;
61200;SDS011;47065;52.898;6.992;2022-08-16T07:33:03;14.13;;;12.70;;
61200;SDS011;47065;52.898;6.992;2022-08-16T07:35:30;13.40;;;11.77;;
61200;SDS011;47065;52.898;6.992;2022-08-16T07:37:56;12.43;;;11.13;;
61200;SDS011;47065;52.898;6.992;2022-08-16T07:40:22;13.95;;;11.98;;
61200;SDS011;47065;52.898;6.992;2022-08-16T07:42:49;13.13;;;11.63;;
61200;SDS011;47065;52.898;6.992;2022-08-16T07:45:16;14.18;;;11.93;;
61200;SDS011;47065;52.898;6.992;2022-08-16T07:47:42;12.98;;;11.10;;
61200;SDS011;47065;52.898;6.992;2022-08-16T07:50:08;12.95;;;11.57;;
61200;SDS011;47065;52.898;6.992;2022-08-16T07:52:35;13.48;;;11.38;;
61200;SDS011;47065;52.898;6.992;2022-08-16T07:55:01;14.90;;;12.98;;
61200;SDS011;47065;52.898;6.992;2022-08-16T07:57:26;13.30;;;11.90;;
61200;SDS011;47065;52.898;6.992;2022-08-16T07:59:54;15.20;;;11.68;;
61200;SDS011;47065;52.898;6.992;2022-08-16T08:02:20;14.05;;;12.02;;
61200;SDS011;47065;52.898;6.992;2022-08-16T08:04:54;16.63;;;12.25;;
61200;SDS011;47065;52.898;6.992;2022-08-16T08:07:20;15.95;;;11.93;;
61200;SDS011;47065;52.898;6.992;2022-08-16T08:09:45;16.35;;;12.70;;
61200;SDS011;47065;52.898;6.992;2022-08-16T08:12:16;15.63;;;13.27;;
61200;SDS011;47065;52.898;6.992;2022-08-16T08:14:52;15.75;;;14.02;;
61200;SDS011;47065;52.898;6.992;2022-08-16T08:17:18;15.10;;;13.50;;
61200;SDS011;47065;52.898;6.992;2022-08-16T08:19:44;13.48;;;11.60;;
61200;SDS011;47065;52.898;6.992;2022-08-16T08:22:10;16.77;;;12.02;;
61200;SDS011;47065;52.898;6.992;2022-08-16T08:24:35;16.52;;;12.32;;
61200;SDS011;47065;52.898;6.992;2022-08-16T08:27:03;14.02;;;11.02;;
61200;SDS011;47065;52.898;6.992;2022-08-16T08:29:35;12.35;;;9.88;;
61200;SDS011;47065;52.898;6.992;2022-08-16T08:32:04;12.95;;;11.20;;
61200;SDS011;47065;52.898;6.992;2022-08-16T08:34:42;13.48;;;12.07;;
61200;SDS011;47065;52.898;6.992;2022-08-16T08:37:08;14.65;;;11.23;;
61200;SDS011;47065;52.898;6.992;2022-08-16T08:39:33;11.30;;;10.20;;
61200;SDS011;47065;52.898;6.992;2022-08-16T08:41:59;10.95;;;9.75;;
61200;SDS011;47065;52.898;6.992;2022-08-16T08:44:26;16.23;;;9.85;;
61200;SDS011;47065;52.898;6.992;2022-08-16T08:46:52;13.30;;;8.75;;
61200;SDS011;47065;52.898;6.992;2022-08-16T08:49:21;9.48;;;8.43;;
61200;SDS011;47065;52.898;6.992;2022-08-16T08:51:47;13.70;;;9.68;;
61200;SDS011;47065;52.898;6.992;2022-08-16T08:54:13;10.35;;;8.23;;
61200;SDS011;47065;52.898;6.992;2022-08-16T08:56:39;9.05;;;7.47;;
61200;SDS011;47065;52.898;6.992;2022-08-16T08:59:05;8.15;;;7.32;;
61200;SDS011;47065;52.898;6.992;2022-08-16T09:01:33;7.78;;;6.78;;
61200;SDS011;47065;52.898;6.992;2022-08-16T09:04:00;12.02;;;8.82;;
61200;SDS011;47065;52.898;6.992;2022-08-16T09:06:28;10.68;;;6.70;;
61200;SDS011;47065;52.898;6.992;2022-08-16T09:08:56;10.38;;;9.05;;
61200;SDS011;47065;52.898;6.992;2022-08-16T09:11:22;9.48;;;8.48;;
61200;SDS011;47065;52.898;6.992;2022-08-16T09:13:49;8.73;;;7.85;;
61200;SDS011;47065;52.898;6.992;2022-08-16T09:16:15;8.75;;;7.88;;
61200;SDS011;47065;52.898;6.992;2022-08-16T09:18:42;8.77;;;7.03;;
61200;SDS011;47065;52.898;6.992;2022-08-16T09:21:08;9.05;;;7.97;;
61200;SDS011;47065;52.898;6.992;2022-08-16T09:23:34;7.13;;;6.53;;
61200;SDS011;47065;52.898;6.992;2022-08-16T09:26:01;8.25;;;7.45;;
61200;SDS011;47065;52.898;6.992;2022-08-16T09:28:32;9.90;;;8.90;;
61200;SDS011;47065;52.898;6.992;2022-08-16T09:30:58;7.80;;;7.03;;
61200;SDS011;47065;52.898;6.992;2022-08-16T09:33:24;8.38;;;7.50;;
61200;SDS011;47065;52.898;6.992;2022-08-16T09:35:49;10.35;;;7.03;;
61200;SDS011;47065;52.898;6.992;2022-08-16T09:38:15;8.82;;;7.95;;
61200;SDS011;47065;52.898;6.992;2022-08-16T09:40:41;7.75;;;7.10;;
61200;SDS011;47065;52.898;6.992;2022-08-16T09:43:11;8.85;;;7.47;;
61200;SDS011;47065;52.898;6.992;2022-08-16T09:45:39;8.50;;;7.00;;
61200;SDS011;47065;52.898;6.992;2022-08-16T09:48:08;7.63;;;6.40;;
61200;SDS011;47065;52.898;6.992;2022-08-16T09:50:35;7.93;;;6.40;;
61200;SDS011;47065;52.898;6.992;2022-08-16T09:53:02;9.68;;;7.35;;
61200;SDS011;47065;52.898;6.992;2022-08-16T09:55:29;8.45;;;7.75;;
61200;SDS011;47065;52.898;6.992;2022-08-16T09:57:55;7.13;;;6.53;;
61200;SDS011;47065;52.898;6.992;2022-08-16T10:00:22;7.60;;;6.75;;
61200;SDS011;47065;52.898;6.992;2022-08-16T10:02:48;6.78;;;6.10;;
61200;SDS011;47065;52.898;6.992;2022-08-16T10:05:16;5.70;;;4.97;;
61200;SDS011;47065;52.898;6.992;2022-08-16T10:07:43;7.32;;;5.18;;
61200;SDS011;47065;52.898;6.992;2022-08-16T10:10:11;8.07;;;5.30;;
61200;SDS011;47065;52.898;6.992;2022-08-16T10:12:37;10.57;;;5.35;;
61200;SDS011;47065;52.898;6.992;2022-08-16T10:15:21;6.90;;;6.07;;
61200;SDS011;47065;52.898;6.992;2022-08-16T10:17:49;7.63;;;6.28;;
61200;SDS011;47065;52.898;6.992;2022-08-16T10:20:17;9.18;;;5.95;;
61200;SDS011;47065;52.898;6.992;2022-08-16T10:22:43;5.30;;;4.70;;
61200;SDS011;47065;52.898;6.992;2022-08-16T10:25:08;5.53;;;4.65;;
61200;SDS011;47065;52.898;6.992;2022-08-16T10:27:34;7.15;;;4.93;;
61200;SDS011;47065;52.898;6.992;2022-08-16T10:30:01;5.85;;;4.88;;
61200;SDS011;47065;52.898;6.992;2022-08-16T10:32:29;8.00;;;5.07;;
61200;SDS011;47065;52.898;6.992;2022-08-16T10:34:55;7.63;;;4.25;;
61200;SDS011;47065;52.898;6.992;2022-08-16T10:37:21;8.25;;;5.63;;
61200;SDS011;47065;52.898;6.992;2022-08-16T10:39:47;7.13;;;5.03;;
61200;SDS011;47065;52.898;6.992;2022-08-16T10:42:13;6.82;;;4.93;;
61200;SDS011;47065;52.898;6.992;2022-08-16T10:44:38;5.40;;;4.57;;
61200;SDS011;47065;52.898;6.992;2022-08-16T10:47:04;6.82;;;4.90;;
61200;SDS011;47065;52.898;6.992;2022-08-16T10:49:30;5.78;;;3.83;;
61200;SDS011;47065;52.898;6.992;2022-08-16T10:51:56;8.73;;;4.28;;
61200;SDS011;47065;52.898;6.992;2022-08-16T10:54:22;3.67;;;3.35;;
61200;SDS011;47065;52.898;6.992;2022-08-16T10:56:48;3.17;;;2.97;;
61200;SDS011;47065;52.898;6.992;2022-08-16T10:59:14;3.53;;;3.22;;
61200;SDS011;47065;52.898;6.992;2022-08-16T11:01:40;3.83;;;3.15;;
61200;SDS011;47065;52.898;6.992;2022-08-16T11:04:05;6.13;;;2.78;;
61200;SDS011;47065;52.898;6.992;2022-08-16T11:06:31;4.43;;;3.53;;
61200;SDS011;47065;52.898;6.992;2022-08-16T11:08:57;8.93;;;3.28;;
61200;SDS011;47065;52.898;6.992;2022-08-16T11:11:23;3.47;;;3.08;;
61200;SDS011;47065;52.898;6.992;2022-08-16T11:13:50;3.72;;;3.28;;
61200;SDS011;47065;52.898;6.992;2022-08-16T11:16:16;4.93;;;3.30;;
61200;SDS011;47065;52.898;6.992;2022-08-16T11:18:43;4.43;;;3.80;;
61200;SDS011;47065;52.898;6.992;2022-08-16T11:21:10;4.28;;;3.90;;
61200;SDS011;47065;52.898;6.992;2022-08-16T11:23:36;5.15;;;3.80;;
61200;SDS011;47065;52.898;6.992;2022-08-16T11:26:02;5.53;;;4.18;;
61200;SDS011;47065;52.898;6.992;2022-08-16T11:28:27;4.47;;;4.07;;
61200;SDS011;47065;52.898;6.992;2022-08-16T11:30:53;4.18;;;3.78;;
61200;SDS011;47065;52.898;6.992;2022-08-16T11:33:18;3.63;;;2.65;;
61200;SDS011;47065;52.898;6.992;2022-08-16T11:35:44;5.65;;;3.97;;
61200;SDS011;47065;52.898;6.992;2022-08-16T11:38:12;3.63;;;3.28;;
61200;SDS011;47065;52.898;6.992;2022-08-16T11:43:06;6.72;;;3.90;;
61200;SDS011;47065;52.898;6.992;2022-08-16T11:45:33;5.03;;;3.45;;
61200;SDS011;47065;52.898;6.992;2022-08-16T11:47:59;6.93;;;3.38;;
61200;SDS011;47065;52.898;6.992;2022-08-16T11:50:25;3.78;;;3.00;;
61200;SDS011;47065;52.898;6.992;2022-08-16T11:52:51;4.07;;;3.67;;
61200;SDS011;47065;52.898;6.992;2022-08-16T11:55:17;3.40;;;3.10;;
61200;SDS011;47065;52.898;6.992;2022-08-16T11:57:43;5.97;;;3.08;;
61200;SDS011;47065;52.898;6.992;2022-08-16T12:00:11;5.53;;;3.33;;
61200;SDS011;47065;52.898;6.992;2022-08-16T12:02:39;4.40;;;3.30;;
61200;SDS011;47065;52.898;6.992;2022-08-16T12:05:06;4.43;;;3.42;;
61200;SDS011;47065;52.898;6.992;2022-08-16T12:07:33;4.57;;;3.03;;
61200;SDS011;47065;52.898;6.992;2022-08-16T12:09:59;5.80;;;3.28;;
61200;SDS011;47065;52.898;6.992;2022-08-16T12:12:26;6.78;;;3.70;;
61200;SDS011;47065;52.898;6.992;2022-08-16T12:14:51;5.03;;;3.72;;
61200;SDS011;47065;52.898;6.992;2022-08-16T12:17:17;3.42;;;3.08;;
61200;SDS011;47065;52.898;6.992;2022-08-16T12:19:43;5.65;;;3.47;;
61200;SDS011;47065;52.898;6.992;2022-08-16T12:22:09;3.55;;;3.22;;
61200;SDS011;47065;52.898;6.992;2022-08-16T12:24:35;4.72;;;4.07;;
61200;SDS011;47065;52.898;6.992;2022-08-16T12:27:01;6.88;;;3.88;;
61200;SDS011;47065;52.898;6.992;2022-08-16T12:29:27;3.58;;;3.35;;
61200;SDS011;47065;52.898;6.992;2022-08-16T12:31:53;4.45;;;3.20;;
61200;SDS011;47065;52.898;6.992;2022-08-16T12:34:19;4.53;;;4.00;;
61200;SDS011;47065;52.898;6.992;2022-08-16T12:36:45;9.98;;;4.55;;
61200;SDS011;47065;52.898;6.992;2022-08-16T12:39:10;5.93;;;4.22;;
61200;SDS011;47065;52.898;6.992;2022-08-16T12:41:37;4.13;;;3.40;;
61200;SDS011;47065;52.898;6.992;2022-08-16T12:44:03;4.00;;;3.70;;
61200;SDS011;47065;52.898;6.992;2022-08-16T12:46:30;5.63;;;3.70;;
61200;SDS011;47065;52.898;6.992;2022-08-16T12:48:57;4.72;;;4.10;;
61200;SDS011;47065;52.898;6.992;2022-08-16T12:51:29;5.18;;;3.60;;
61200;SDS011;47065;52.898;6.992;2022-08-16T12:53:59;5.28;;;4.20;;
61200;SDS011;47065;52.898;6.992;2022-08-16T12:56:29;4.72;;;3.63;;
61200;SDS011;47065;52.898;6.992;2022-08-16T12:58:57;4.20;;;3.80;;
61200;SDS011;47065;52.898;6.992;2022-08-16T13:01:26;4.07;;;3.38;;
61200;SDS011;47065;52.898;6.992;2022-08-16T13:03:54;8.57;;;4.38;;
61200;SDS011;47065;52.898;6.992;2022-08-16T13:06:22;4.82;;;3.80;;
61200;SDS011;47065;52.898;6.992;2022-08-16T13:08:48;6.70;;;3.58;;
61200;SDS011;47065;52.898;6.992;2022-08-16T13:11:19;6.50;;;3.47;;
61200;SDS011;47065;52.898;6.992;2022-08-16T13:13:53;3.63;;;3.33;;
61200;SDS011;47065;52.898;6.992;2022-08-16T13:16:19;4.60;;;3.58;;
61200;SDS011;47065;52.898;6.992;2022-08-16T13:18:44;5.47;;;3.55;;
61200;SDS011;47065;52.898;6.992;2022-08-16T13:21:10;5.07;;;4.05;;
61200;SDS011;47065;52.898;6.992;2022-08-16T13:23:36;8.00;;;3.38;;
61200;SDS011;47065;52.898;6.992;2022-08-16T13:26:03;4.97;;;4.03;;
61200;SDS011;47065;52.898;6.992;2022-08-16T13:28:29;3.70;;;3.35;;
61200;SDS011;47065;52.898;6.992;2022-08-16T13:30:54;3.13;;;2.92;;
61200;SDS011;47065;52.898;6.992;2022-08-16T13:33:24;3.78;;;3.28;;
61200;SDS011;47065;52.898;6.992;2022-08-16T13:35:54;5.57;;;3.25;;
61200;SDS011;47065;52.898;6.992;2022-08-16T13:38:20;5.13;;;3.30;;
61200;SDS011;47065;52.898;6.992;2022-08-16T13:40:46;5.97;;;3.65;;
61200;SDS011;47065;52.898;6.992;2022-08-16T13:43:12;10.93;;;3.63;;
61200;SDS011;47065;52.898;6.992;2022-08-16T13:45:38;4.65;;;3.40;;
61200;SDS011;47065;52.898;6.992;2022-08-16T13:48:05;6.13;;;3.70;;
61200;SDS011;47065;52.898;6.992;2022-08-16T13:50:31;7.78;;;4.15;;
61200;SDS011;47065;52.898;6.992;2022-08-16T13:52:59;4.40;;;4.00;;
61200;SDS011;47065;52.898;6.992;2022-08-16T13:55:25;8.30;;;4.10;;
61200;SDS011;47065;52.898;6.992;2022-08-16T13:57:52;6.13;;;4.00;;
61200;SDS011;47065;52.898;6.992;2022-08-16T14:00:17;6.78;;;3.65;;
61200;SDS011;47065;52.898;6.992;2022-08-16T14:02:44;5.03;;;3.90;;
61200;SDS011;47065;52.898;6.992;2022-08-16T14:05:10;11.75;;;4.05;;
61200;SDS011;47065;52.898;6.992;2022-08-16T14:07:36;9.75;;;4.25;;
61200;SDS011;47065;52.898;6.992;2022-08-16T14:10:06;4.70;;;3.55;;
61200;SDS011;47065;52.898;6.992;2022-08-16T14:12:34;6.25;;;3.45;;
61200;SDS011;47065;52.898;6.992;2022-08-16T14:15:02;5.40;;;3.40;;
61200;SDS011;47065;52.898;6.992;2022-08-16T14:17:29;3.75;;;3.42;;
61200;SDS011;47065;52.898;6.992;2022-08-16T14:19:55;4.55;;;3.83;;
61200;SDS011;47065;52.898;6.992;2022-08-16T14:22:28;4.82;;;3.58;;
61200;SDS011;47065;52.898;6.992;2022-08-16T14:24:56;4.20;;;3.78;;
61200;SDS011;47065;52.898;6.992;2022-08-16T14:27:23;7.70;;;3.28;;
61200;SDS011;47065;52.898;6.992;2022-08-16T14:29:52;5.10;;;3.58;;
61200;SDS011;47065;52.898;6.992;2022-08-16T14:32:20;5.45;;;3.30;;
61200;SDS011;47065;52.898;6.992;2022-08-16T14:34:48;3.83;;;2.97;;